sensor_id;sensor_type;location;lat;lon;timestamp;P1;durP1;ratioP1;P2;durP2;ratioP2
70303;SDS011;57712;48.752;11.348;2022-11-20T00:01:13;29.85;;;11.98;;
70303;SDS011;57712;48.752;11.348;2022-11-20T00:03:41;30.90;;;13.77;;
70303;SDS011;57712;48.752;11.348;2022-11-20T00:06:09;32.40;;;13.13;;
70303;SDS011;57712;48.752;11.348;2022-11-20T00:08:38;32.28;;;14.48;;
70303;SDS011;57712;48.752;11.348;2022-11-20T00:11:08;36.25;;;14.68;;
70303;SDS011;57712;48.752;11.348;2022-11-20T00:13:41;30.50;;;12.80;;
70303;SDS011;57712;48.752;11.348;2022-11-20T00:16:12;29.70;;;12.43;;
70303;SDS011;57712;48.752;11.348;2022-11-20T00:18:40;27.97;;;11.87;;
70303;SDS011;57712;48.752;11.348;2022-11-20T00:21:13;31.58;;;13.95;;
70303;SDS011;57712;48.752;11.348;2022-11-20T00:23:41;37.13;;;16.23;;
70303;SDS011;57712;48.752;11.348;2022-11-20T00:26:09;63.70;;;29.58;;
70303;SDS011;57712;48.752;11.348;2022-11-20T00:28:37;47.00;;;21.05;;
70303;SDS011;57712;48.752;11.348;2022-11-20T00:31:04;31.40;;;13.10;;
70303;SDS011;57712;48.752;11.348;2022-11-20T00:33:38;33.78;;;14.10;;
70303;SDS011;57712;48.752;11.348;2022-11-20T00:36:06;32.20;;;11.60;;
70303;SDS011;57712;48.752;11.348;2022-11-20T00:38:34;25.55;;;10.63;;
70303;SDS011;57712;48.752;11.348;2022-11-20T00:41:03;29.60;;;12.35;;
70303;SDS011;57712;48.752;11.348;2022-11-20T00:43:31;30.17;;;12.83;;
70303;SDS011;57712;48.752;11.348;2022-11-20T00:45:58;28.38;;;12.32;;
70303;SDS011;57712;48.752;11.348;2022-11-20T00:48:28;29.15;;;12.38;;
70303;SDS011;57712;48.752;11.348;2022-11-20T00:50:54;29.48;;;12.45;;
70303;SDS011;57712;48.752;11.348;2022-11-20T00:53:21;34.85;;;12.48;;
70303;SDS011;57712;48.752;11.348;2022-11-20T00:56:01;30.67;;;12.87;;
70303;SDS011;57712;48.752;11.348;2022-11-20T00:58:33;29.10;;;11.98;;
70303;SDS011;57712;48.752;11.348;2022-11-20T01:01:07;30.67;;;12.75;;
70303;SDS011;57712;48.752;11.348;2022-11-20T01:03:42;30.92;;;12.15;;
70303;SDS011;57712;48.752;11.348;2022-11-20T01:06:14;36.05;;;13.55;;
70303;SDS011;57712;48.752;11.348;2022-11-20T01:08:43;32.07;;;12.73;;
70303;SDS011;57712;48.752;11.348;2022-11-20T01:11:11;34.85;;;14.10;;
70303;SDS011;57712;48.752;11.348;2022-11-20T01:13:40;28.30;;;12.07;;
70303;SDS011;57712;48.752;11.348;2022-11-20T01:16:12;29.33;;;12.23;;
70303;SDS011;57712;48.752;11.348;2022-11-20T01:18:41;33.75;;;12.77;;
70303;SDS011;57712;48.752;11.348;2022-11-20T01:21:19;32.87;;;13.40;;
70303;SDS011;57712;48.752;11.348;2022-11-20T01:23:48;28.08;;;12.63;;
70303;SDS011;57712;48.752;11.348;2022-11-20T01:26:16;29.73;;;13.00;;
70303;SDS011;57712;48.752;11.348;2022-11-20T01:28:50;31.52;;;13.65;;
70303;SDS011;57712;48.752;11.348;2022-11-20T01:31:18;28.92;;;11.60;;
70303;SDS011;57712;48.752;11.348;2022-11-20T01:33:46;27.43;;;11.37;;
70303;SDS011;57712;48.752;11.348;2022-11-20T01:36:15;30.80;;;12.68;;
70303;SDS011;57712;48.752;11.348;2022-11-20T01:38:43;28.90;;;12.23;;
70303;SDS011;57712;48.752;11.348;2022-11-20T01:41:10;30.80;;;12.48;;
70303;SDS011;57712;48.752;11.348;2022-11-20T01:43:58;31.25;;;11.93;;
70303;SDS011;57712;48.752;11.348;2022-11-20T01:46:25;29.03;;;12.60;;
70303;SDS011;57712;48.752;11.348;2022-11-20T01:48:54;29.45;;;12.32;;
70303;SDS011;57712;48.752;11.348;2022-11-20T01:51:25;28.63;;;12.18;;
70303;SDS011;57712;48.752;11.348;2022-11-20T01:53:58;30.70;;;13.02;;
70303;SDS011;57712;48.752;11.348;2022-11-20T01:56:29;30.75;;;12.38;;
70303;SDS011;57712;48.752;11.348;2022-11-20T01:58:59;31.87;;;13.60;;
70303;SDS011;57712;48.752;11.348;2022-11-20T02:01:29;37.60;;;15.57;;
70303;SDS011;57712;48.752;11.348;2022-11-20T02:03:55;38.10;;;15.38;;
70303;SDS011;57712;48.752;11.348;2022-11-20T02:06:26;34.10;;;13.52;;
70303;SDS011;57712;48.752;11.348;2022-11-20T02:08:55;33.10;;;12.82;;
70303;SDS011;57712;48.752;11.348;2022-11-20T02:11:21;32.97;;;13.17;;
70303;SDS011;57712;48.752;11.348;2022-11-20T02:13:48;33.13;;;13.85;;
70303;SDS011;57712;48.752;11.348;2022-11-20T02:18:48;27.95;;;12.23;;
70303;SDS011;57712;48.752;11.348;2022-11-20T02:26:47;33.85;;;11.90;;
70303;SDS011;57712;48.752;11.348;2022-11-20T02:29:19;30.52;;;12.02;;
70303;SDS011;57712;48.752;11.348;2022-11-20T02:31:51;30.70;;;11.52;;
70303;SDS011;57712;48.752;11.348;2022-11-20T02:34:21;29.60;;;12.00;;
70303;SDS011;57712;48.752;11.348;2022-11-20T02:36:47;34.30;;;11.70;;
70303;SDS011;57712;48.752;11.348;2022-11-20T02:39:15;33.47;;;12.23;;
70303;SDS011;57712;48.752;11.348;2022-11-20T02:41:43;31.45;;;12.10;;
70303;SDS011;57712;48.752;11.348;2022-11-20T02:44:10;30.67;;;11.85;;
70303;SDS011;57712;48.752;11.348;2022-11-20T02:46:36;32.85;;;12.23;;
70303;SDS011;57712;48.752;11.348;2022-11-20T02:49:03;32.90;;;12.23;;
70303;SDS011;57712;48.752;11.348;2022-11-20T02:51:31;31.60;;;12.35;;
70303;SDS011;57712;48.752;11.348;2022-11-20T02:53:58;27.75;;;10.93;;
70303;SDS011;57712;48.752;11.348;2022-11-20T02:56:25;30.48;;;12.05;;
70303;SDS011;57712;48.752;11.348;2022-11-20T02:58:51;29.67;;;12.32;;
70303;SDS011;57712;48.752;11.348;2022-11-20T03:01:20;28.60;;;11.90;;
70303;SDS011;57712;48.752;11.348;2022-11-20T03:03:46;30.55;;;12.10;;
70303;SDS011;57712;48.752;11.348;2022-11-20T03:06:15;29.35;;;11.80;;
70303;SDS011;57712;48.752;11.348;2022-11-20T03:08:42;26.92;;;12.25;;
70303;SDS011;57712;48.752;11.348;2022-11-20T03:11:08;25.20;;;10.02;;
70303;SDS011;57712;48.752;11.348;2022-11-20T03:13:35;24.13;;;10.77;;
70303;SDS011;57712;48.752;11.348;2022-11-20T03:16:06;26.17;;;11.00;;
70303;SDS011;57712;48.752;11.348;2022-11-20T03:18:36;23.45;;;10.20;;
70303;SDS011;57712;48.752;11.348;2022-11-20T03:21:03;27.55;;;11.25;;
70303;SDS011;57712;48.752;11.348;2022-11-20T03:23:30;25.50;;;10.50;;
70303;SDS011;57712;48.752;11.348;2022-11-20T03:26:08;25.60;;;10.10;;
70303;SDS011;57712;48.752;11.348;2022-11-20T03:28:45;25.13;;;10.50;;
70303;SDS011;57712;48.752;11.348;2022-11-20T03:31:13;23.45;;;9.65;;
70303;SDS011;57712;48.752;11.348;2022-11-20T03:33:42;27.80;;;11.27;;
70303;SDS011;57712;48.752;11.348;2022-11-20T03:36:10;27.33;;;11.10;;
70303;SDS011;57712;48.752;11.348;2022-11-20T03:38:38;25.83;;;10.70;;
70303;SDS011;57712;48.752;11.348;2022-11-20T03:41:06;27.77;;;11.52;;
70303;SDS011;57712;48.752;11.348;2022-11-20T03:43:37;24.95;;;11.13;;
70303;SDS011;57712;48.752;11.348;2022-11-20T03:46:04;24.60;;;10.55;;
70303;SDS011;57712;48.752;11.348;2022-11-20T03:48:32;24.63;;;10.85;;
70303;SDS011;57712;48.752;11.348;2022-11-20T03:51:15;26.97;;;11.57;;
70303;SDS011;57712;48.752;11.348;2022-11-20T03:53:43;26.13;;;11.00;;
70303;SDS011;57712;48.752;11.348;2022-11-20T03:56:11;26.00;;;11.27;;
70303;SDS011;57712;48.752;11.348;2022-11-20T03:58:39;25.75;;;10.38;;
70303;SDS011;57712;48.752;11.348;2022-11-20T04:01:07;28.13;;;11.27;;
70303;SDS011;57712;48.752;11.348;2022-11-20T04:03:35;25.10;;;10.40;;
70303;SDS011;57712;48.752;11.348;2022-11-20T04:06:12;20.88;;;9.73;;
70303;SDS011;57712;48.752;11.348;2022-11-20T04:09:00;23.58;;;9.75;;
70303;SDS011;57712;48.752;11.348;2022-11-20T04:11:28;21.60;;;9.73;;
70303;SDS011;57712;48.752;11.348;2022-11-20T04:13:57;20.85;;;9.07;;
70303;SDS011;57712;48.752;11.348;2022-11-20T04:16:25;19.23;;;8.50;;
70303;SDS011;57712;48.752;11.348;2022-11-20T04:18:55;18.80;;;8.77;;
70303;SDS011;57712;48.752;11.348;2022-11-20T04:21:24;18.15;;;8.00;;
70303;SDS011;57712;48.752;11.348;2022-11-20T04:23:51;16.13;;;7.18;;
70303;SDS011;57712;48.752;11.348;2022-11-20T04:26:19;16.13;;;7.10;;
70303;SDS011;57712;48.752;11.348;2022-11-20T04:28:46;14.13;;;6.57;;
70303;SDS011;57712;48.752;11.348;2022-11-20T04:31:14;14.23;;;6.50;;
70303;SDS011;57712;48.752;11.348;2022-11-20T04:33:42;16.42;;;6.47;;
70303;SDS011;57712;48.752;11.348;2022-11-20T04:38:42;13.13;;;6.25;;
70303;SDS011;57712;48.752;11.348;2022-11-20T04:41:12;12.60;;;5.60;;
70303;SDS011;57712;48.752;11.348;2022-11-20T04:43:41;13.38;;;5.82;;
70303;SDS011;57712;48.752;11.348;2022-11-20T04:46:12;11.40;;;5.65;;
70303;SDS011;57712;48.752;11.348;2022-11-20T04:48:38;11.02;;;5.28;;
70303;SDS011;57712;48.752;11.348;2022-11-20T04:51:05;12.60;;;5.53;;
70303;SDS011;57712;48.752;11.348;2022-11-20T04:53:31;12.80;;;4.87;;
70303;SDS011;57712;48.752;11.348;2022-11-20T04:56:02;10.27;;;4.78;;
70303;SDS011;57712;48.752;11.348;2022-11-20T04:58:33;12.65;;;5.07;;
70303;SDS011;57712;48.752;11.348;2022-11-20T05:01:01;11.63;;;4.88;;
70303;SDS011;57712;48.752;11.348;2022-11-20T05:03:32;10.32;;;4.82;;
70303;SDS011;57712;48.752;11.348;2022-11-20T05:06:05;12.33;;;3.97;;
70303;SDS011;57712;48.752;11.348;2022-11-20T05:08:32;11.38;;;4.53;;
70303;SDS011;57712;48.752;11.348;2022-11-20T05:11:03;10.18;;;4.50;;
70303;SDS011;57712;48.752;11.348;2022-11-20T05:13:31;11.98;;;4.47;;
70303;SDS011;57712;48.752;11.348;2022-11-20T05:16:05;8.95;;;4.35;;
70303;SDS011;57712;48.752;11.348;2022-11-20T05:18:33;10.23;;;4.50;;
70303;SDS011;57712;48.752;11.348;2022-11-20T05:21:00;10.45;;;4.13;;
70303;SDS011;57712;48.752;11.348;2022-11-20T05:23:27;11.05;;;4.28;;
70303;SDS011;57712;48.752;11.348;2022-11-20T05:25:55;10.23;;;3.92;;
70303;SDS011;57712;48.752;11.348;2022-11-20T05:28:24;10.02;;;4.25;;
70303;SDS011;57712;48.752;11.348;2022-11-20T05:30:52;9.87;;;4.23;;
70303;SDS011;57712;48.752;11.348;2022-11-20T05:33:18;9.98;;;3.80;;
70303;SDS011;57712;48.752;11.348;2022-11-20T05:35:45;11.27;;;4.25;;
70303;SDS011;57712;48.752;11.348;2022-11-20T05:38:11;9.27;;;4.35;;
70303;SDS011;57712;48.752;11.348;2022-11-20T05:40:38;10.77;;;4.45;;
70303;SDS011;57712;48.752;11.348;2022-11-20T05:43:04;13.27;;;5.10;;
70303;SDS011;57712;48.752;11.348;2022-11-20T05:45:30;10.82;;;4.47;;
70303;SDS011;57712;48.752;11.348;2022-11-20T05:47:57;12.20;;;4.47;;
70303;SDS011;57712;48.752;11.348;2022-11-20T05:50:26;9.30;;;3.97;;
70303;SDS011;57712;48.752;11.348;2022-11-20T05:52:53;9.90;;;3.80;;
70303;SDS011;57712;48.752;11.348;2022-11-20T05:55:19;11.63;;;4.30;;
70303;SDS011;57712;48.752;11.348;2022-11-20T05:57:46;9.50;;;3.95;;
70303;SDS011;57712;48.752;11.348;2022-11-20T06:00:12;9.73;;;3.70;;
70303;SDS011;57712;48.752;11.348;2022-11-20T06:02:39;8.07;;;3.67;;
70303;SDS011;57712;48.752;11.348;2022-11-20T06:05:05;9.63;;;4.13;;
70303;SDS011;57712;48.752;11.348;2022-11-20T06:07:32;9.07;;;4.00;;
70303;SDS011;57712;48.752;11.348;2022-11-20T06:09:58;11.02;;;4.05;;
70303;SDS011;57712;48.752;11.348;2022-11-20T06:12:25;8.20;;;3.63;;
70303;SDS011;57712;48.752;11.348;2022-11-20T06:14:51;9.45;;;3.88;;
70303;SDS011;57712;48.752;11.348;2022-11-20T06:17:17;8.65;;;3.80;;
70303;SDS011;57712;48.752;11.348;2022-11-20T06:19:43;8.63;;;4.27;;
70303;SDS011;57712;48.752;11.348;2022-11-20T06:22:10;10.25;;;4.05;;
70303;SDS011;57712;48.752;11.348;2022-11-20T06:24:36;11.15;;;3.90;;
70303;SDS011;57712;48.752;11.348;2022-11-20T06:27:02;9.40;;;4.15;;
70303;SDS011;57712;48.752;11.348;2022-11-20T06:29:29;11.57;;;4.28;;
70303;SDS011;57712;48.752;11.348;2022-11-20T06:31:59;10.07;;;4.10;;
70303;SDS011;57712;48.752;11.348;2022-11-20T06:34:25;10.13;;;4.22;;
70303;SDS011;57712;48.752;11.348;2022-11-20T06:36:52;10.48;;;3.97;;
70303;SDS011;57712;48.752;11.348;2022-11-20T06:39:18;10.23;;;3.97;;
70303;SDS011;57712;48.752;11.348;2022-11-20T06:41:45;10.15;;;3.90;;
70303;SDS011;57712;48.752;11.348;2022-11-20T06:44:11;8.87;;;4.10;;
70303;SDS011;57712;48.752;11.348;2022-11-20T06:46:37;9.52;;;4.40;;
70303;SDS011;57712;48.752;11.348;2022-11-20T06:49:04;8.75;;;3.88;;
70303;SDS011;57712;48.752;11.348;2022-11-20T06:51:31;8.05;;;3.58;;
70303;SDS011;57712;48.752;11.348;2022-11-20T06:53:57;9.25;;;3.95;;
70303;SDS011;57712;48.752;11.348;2022-11-20T06:56:23;8.10;;;4.07;;
70303;SDS011;57712;48.752;11.348;2022-11-20T06:58:49;13.25;;;5.72;;
70303;SDS011;57712;48.752;11.348;2022-11-20T07:01:16;12.50;;;5.25;;
70303;SDS011;57712;48.752;11.348;2022-11-20T07:03:42;18.05;;;8.85;;
70303;SDS011;57712;48.752;11.348;2022-11-20T07:06:09;15.73;;;7.82;;
70303;SDS011;57712;48.752;11.348;2022-11-20T07:08:36;15.17;;;6.90;;
70303;SDS011;57712;48.752;11.348;2022-11-20T07:11:04;18.05;;;8.68;;
70303;SDS011;57712;48.752;11.348;2022-11-20T07:13:32;18.85;;;9.75;;
70303;SDS011;57712;48.752;11.348;2022-11-20T07:15:59;16.40;;;7.57;;
70303;SDS011;57712;48.752;11.348;2022-11-20T07:18:26;11.10;;;5.22;;
70303;SDS011;57712;48.752;11.348;2022-11-20T07:20:53;10.30;;;4.70;;
70303;SDS011;57712;48.752;11.348;2022-11-20T07:23:20;10.77;;;5.00;;
70303;SDS011;57712;48.752;11.348;2022-11-20T07:25:47;9.13;;;4.47;;
70303;SDS011;57712;48.752;11.348;2022-11-20T07:28:13;8.80;;;4.15;;
70303;SDS011;57712;48.752;11.348;2022-11-20T07:30:40;9.43;;;4.35;;
70303;SDS011;57712;48.752;11.348;2022-11-20T07:33:06;7.50;;;2.90;;
70303;SDS011;57712;48.752;11.348;2022-11-20T07:35:32;8.25;;;3.30;;
70303;SDS011;57712;48.752;11.348;2022-11-20T07:37:59;7.72;;;3.53;;
70303;SDS011;57712;48.752;11.348;2022-11-20T07:40:25;9.80;;;4.47;;
70303;SDS011;57712;48.752;11.348;2022-11-20T07:42:52;10.48;;;3.78;;
70303;SDS011;57712;48.752;11.348;2022-11-20T07:45:20;8.87;;;3.50;;
70303;SDS011;57712;48.752;11.348;2022-11-20T07:47:48;7.88;;;2.60;;
70303;SDS011;57712;48.752;11.348;2022-11-20T07:50:15;6.50;;;2.95;;
70303;SDS011;57712;48.752;11.348;2022-11-20T07:52:43;7.40;;;3.05;;
70303;SDS011;57712;48.752;11.348;2022-11-20T07:55:09;6.60;;;3.20;;
70303;SDS011;57712;48.752;11.348;2022-11-20T07:57:36;17.53;;;3.37;;
70303;SDS011;57712;48.752;11.348;2022-11-20T08:00:03;7.32;;;3.00;;
70303;SDS011;57712;48.752;11.348;2022-11-20T08:02:31;7.20;;;3.33;;
70303;SDS011;57712;48.752;11.348;2022-11-20T08:04:57;8.07;;;2.72;;
70303;SDS011;57712;48.752;11.348;2022-11-20T08:07:24;6.85;;;2.97;;
70303;SDS011;57712;48.752;11.348;2022-11-20T08:09:50;6.90;;;3.03;;
70303;SDS011;57712;48.752;11.348;2022-11-20T08:12:20;7.28;;;3.28;;
70303;SDS011;57712;48.752;11.348;2022-11-20T08:15:06;7.78;;;3.75;;
70303;SDS011;57712;48.752;11.348;2022-11-20T08:17:38;6.20;;;2.80;;
70303;SDS011;57712;48.752;11.348;2022-11-20T08:20:05;8.07;;;4.57;;
70303;SDS011;57712;48.752;11.348;2022-11-20T08:22:31;9.27;;;4.97;;
70303;SDS011;57712;48.752;11.348;2022-11-20T08:24:58;8.68;;;4.05;;
70303;SDS011;57712;48.752;11.348;2022-11-20T08:27:24;7.43;;;3.97;;
70303;SDS011;57712;48.752;11.348;2022-11-20T08:29:51;7.10;;;3.65;;
70303;SDS011;57712;48.752;11.348;2022-11-20T08:32:17;5.88;;;2.60;;
70303;SDS011;57712;48.752;11.348;2022-11-20T08:34:43;7.40;;;3.03;;
70303;SDS011;57712;48.752;11.348;2022-11-20T08:37:10;7.07;;;3.25;;
70303;SDS011;57712;48.752;11.348;2022-11-20T08:39:36;6.78;;;2.97;;
70303;SDS011;57712;48.752;11.348;2022-11-20T08:42:06;8.27;;;3.50;;
70303;SDS011;57712;48.752;11.348;2022-11-20T08:44:33;9.15;;;3.65;;
70303;SDS011;57712;48.752;11.348;2022-11-20T08:47:00;7.10;;;4.03;;
70303;SDS011;57712;48.752;11.348;2022-11-20T08:49:26;6.57;;;2.95;;
70303;SDS011;57712;48.752;11.348;2022-11-20T08:51:53;6.43;;;2.65;;
70303;SDS011;57712;48.752;11.348;2022-11-20T08:54:21;7.28;;;3.17;;
70303;SDS011;57712;48.752;11.348;2022-11-20T08:56:48;7.63;;;2.60;;
70303;SDS011;57712;48.752;11.348;2022-11-20T08:59:15;7.70;;;4.50;;
70303;SDS011;57712;48.752;11.348;2022-11-20T09:02:01;5.57;;;2.67;;
70303;SDS011;57712;48.752;11.348;2022-11-20T09:04:28;6.93;;;3.45;;
70303;SDS011;57712;48.752;11.348;2022-11-20T09:06:54;6.13;;;2.40;;
70303;SDS011;57712;48.752;11.348;2022-11-20T09:09:21;7.18;;;2.83;;
70303;SDS011;57712;48.752;11.348;2022-11-20T09:11:48;6.37;;;2.63;;
70303;SDS011;57712;48.752;11.348;2022-11-20T09:14:16;8.05;;;4.07;;
70303;SDS011;57712;48.752;11.348;2022-11-20T09:16:44;7.03;;;2.70;;
70303;SDS011;57712;48.752;11.348;2022-11-20T09:19:11;7.55;;;2.53;;
70303;SDS011;57712;48.752;11.348;2022-11-20T09:21:57;6.55;;;2.40;;
70303;SDS011;57712;48.752;11.348;2022-11-20T09:24:25;6.20;;;2.93;;
70303;SDS011;57712;48.752;11.348;2022-11-20T09:26:52;6.72;;;2.92;;
70303;SDS011;57712;48.752;11.348;2022-11-20T09:29:19;6.68;;;2.45;;
70303;SDS011;57712;48.752;11.348;2022-11-20T09:31:46;6.32;;;2.28;;
70303;SDS011;57712;48.752;11.348;2022-11-20T09:34:12;6.75;;;2.25;;
70303;SDS011;57712;48.752;11.348;2022-11-20T09:36:39;6.30;;;2.37;;
70303;SDS011;57712;48.752;11.348;2022-11-20T09:39:05;6.00;;;2.30;;
70303;SDS011;57712;48.752;11.348;2022-11-20T09:47:08;7.03;;;2.80;;
70303;SDS011;57712;48.752;11.348;2022-11-20T09:52:31;6.45;;;2.55;;
70303;SDS011;57712;48.752;11.348;2022-11-20T09:55:06;5.60;;;2.30;;
70303;SDS011;57712;48.752;11.348;2022-11-20T09:57:36;7.95;;;3.00;;
70303;SDS011;57712;48.752;11.348;2022-11-20T10:00:09;7.15;;;3.00;;
70303;SDS011;57712;48.752;11.348;2022-11-20T10:02:48;7.53;;;2.97;;
70303;SDS011;57712;48.752;11.348;2022-11-20T10:05:34;8.50;;;2.95;;
70303;SDS011;57712;48.752;11.348;2022-11-20T10:08:15;6.80;;;2.65;;
70303;SDS011;57712;48.752;11.348;2022-11-20T10:13:27;7.85;;;2.80;;
70303;SDS011;57712;48.752;11.348;2022-11-20T10:18:54;5.60;;;2.25;;
70303;SDS011;57712;48.752;11.348;2022-11-20T10:21:49;7.15;;;2.50;;
70303;SDS011;57712;48.752;11.348;2022-11-20T10:27:24;5.82;;;2.00;;
70303;SDS011;57712;48.752;11.348;2022-11-20T10:30:03;5.47;;;1.90;;
70303;SDS011;57712;48.752;11.348;2022-11-20T10:32:52;5.50;;;1.90;;
70303;SDS011;57712;48.752;11.348;2022-11-20T10:38:00;6.88;;;2.58;;
70303;SDS011;57712;48.752;11.348;2022-11-20T10:40:38;6.45;;;2.13;;
70303;SDS011;57712;48.752;11.348;2022-11-20T10:43:16;6.20;;;2.33;;
70303;SDS011;57712;48.752;11.348;2022-11-20T10:46:05;6.15;;;2.10;;
70303;SDS011;57712;48.752;11.348;2022-11-20T10:48:36;8.40;;;3.30;;
70303;SDS011;57712;48.752;11.348;2022-11-20T10:51:15;6.15;;;2.10;;
70303;SDS011;57712;48.752;11.348;2022-11-20T10:56:47;6.87;;;2.70;;
70303;SDS011;57712;48.752;11.348;2022-11-20T11:02:15;5.40;;;2.17;;
70303;SDS011;57712;48.752;11.348;2022-11-20T11:04:49;5.65;;;2.20;;
70303;SDS011;57712;48.752;11.348;2022-11-20T11:07:24;5.50;;;1.65;;
70303;SDS011;57712;48.752;11.348;2022-11-20T11:09:56;5.53;;;2.13;;
70303;SDS011;57712;48.752;11.348;2022-11-20T11:12:24;5.80;;;1.80;;
70303;SDS011;57712;48.752;11.348;2022-11-20T11:14:53;6.25;;;2.13;;
70303;SDS011;57712;48.752;11.348;2022-11-20T11:22:25;5.33;;;1.70;;
70303;SDS011;57712;48.752;11.348;2022-11-20T11:24:53;5.50;;;1.90;;
70303;SDS011;57712;48.752;11.348;2022-11-20T11:27:20;4.63;;;1.50;;
70303;SDS011;57712;48.752;11.348;2022-11-20T11:29:46;7.40;;;2.22;;
70303;SDS011;57712;48.752;11.348;2022-11-20T11:34:59;7.20;;;2.50;;
70303;SDS011;57712;48.752;11.348;2022-11-20T11:37:37;6.45;;;2.28;;
70303;SDS011;57712;48.752;11.348;2022-11-20T11:40:05;6.28;;;2.20;;
70303;SDS011;57712;48.752;11.348;2022-11-20T11:42:56;5.65;;;1.52;;
70303;SDS011;57712;48.752;11.348;2022-11-20T11:45:24;6.35;;;2.03;;
70303;SDS011;57712;48.752;11.348;2022-11-20T11:47:52;8.13;;;2.50;;
70303;SDS011;57712;48.752;11.348;2022-11-20T11:50:21;7.07;;;2.70;;
70303;SDS011;57712;48.752;11.348;2022-11-20T11:55:40;6.88;;;2.58;;
70303;SDS011;57712;48.752;11.348;2022-11-20T11:58:12;10.27;;;3.03;;
70303;SDS011;57712;48.752;11.348;2022-11-20T12:03:42;6.70;;;2.63;;
70303;SDS011;57712;48.752;11.348;2022-11-20T12:06:15;5.57;;;2.60;;
70303;SDS011;57712;48.752;11.348;2022-11-20T12:11:24;7.63;;;2.65;;
70303;SDS011;57712;48.752;11.348;2022-11-20T12:14:17;8.03;;;2.60;;
70303;SDS011;57712;48.752;11.348;2022-11-20T12:16:50;9.70;;;3.25;;
70303;SDS011;57712;48.752;11.348;2022-11-20T12:19:18;7.63;;;2.58;;
70303;SDS011;57712;48.752;11.348;2022-11-20T12:24:52;7.13;;;2.33;;
70303;SDS011;57712;48.752;11.348;2022-11-20T12:30:19;7.63;;;2.28;;
70303;SDS011;57712;48.752;11.348;2022-11-20T12:41:24;5.70;;;1.60;;
70303;SDS011;57712;48.752;11.348;2022-11-20T12:47:57;6.63;;;1.80;;
70303;SDS011;57712;48.752;11.348;2022-11-20T12:53:33;6.45;;;2.15;;
70303;SDS011;57712;48.752;11.348;2022-11-20T13:06:58;6.05;;;1.50;;
70303;SDS011;57712;48.752;11.348;2022-11-20T13:09:27;10.07;;;3.00;;
70303;SDS011;57712;48.752;11.348;2022-11-20T13:17:13;8.68;;;2.70;;
70303;SDS011;57712;48.752;11.348;2022-11-20T13:19:41;14.43;;;4.38;;
70303;SDS011;57712;48.752;11.348;2022-11-20T13:22:08;4.97;;;1.50;;
70303;SDS011;57712;48.752;11.348;2022-11-20T13:24:35;4.63;;;1.63;;
70303;SDS011;57712;48.752;11.348;2022-11-20T13:27:03;3.97;;;1.10;;
70303;SDS011;57712;48.752;11.348;2022-11-20T13:29:40;4.80;;;1.70;;
70303;SDS011;57712;48.752;11.348;2022-11-20T13:37:37;4.43;;;1.58;;
70303;SDS011;57712;48.752;11.348;2022-11-20T13:42:35;4.70;;;1.40;;
70303;SDS011;57712;48.752;11.348;2022-11-20T13:45:10;5.55;;;1.38;;
70303;SDS011;57712;48.752;11.348;2022-11-20T13:47:58;4.77;;;1.30;;
70303;SDS011;57712;48.752;11.348;2022-11-20T13:53:15;4.72;;;1.23;;
70303;SDS011;57712;48.752;11.348;2022-11-20T13:58:57;4.13;;;1.08;;
70303;SDS011;57712;48.752;11.348;2022-11-20T14:01:39;3.83;;;1.13;;
70303;SDS011;57712;48.752;11.348;2022-11-20T14:04:09;3.55;;;0.82;;
70303;SDS011;57712;48.752;11.348;2022-11-20T14:06:43;3.88;;;1.15;;
70303;SDS011;57712;48.752;11.348;2022-11-20T14:09:13;4.30;;;0.85;;
70303;SDS011;57712;48.752;11.348;2022-11-20T14:11:51;3.92;;;1.13;;
70303;SDS011;57712;48.752;11.348;2022-11-20T14:16:45;4.07;;;1.13;;
70303;SDS011;57712;48.752;11.348;2022-11-20T14:21:48;3.63;;;0.77;;
70303;SDS011;57712;48.752;11.348;2022-11-20T14:24:19;6.50;;;0.98;;
70303;SDS011;57712;48.752;11.348;2022-11-20T14:26:48;3.47;;;0.83;;
70303;SDS011;57712;48.752;11.348;2022-11-20T14:29:16;5.75;;;1.58;;
70303;SDS011;57712;48.752;11.348;2022-11-20T14:31:50;3.95;;;0.77;;
70303;SDS011;57712;48.752;11.348;2022-11-20T14:34:25;3.90;;;0.88;;
70303;SDS011;57712;48.752;11.348;2022-11-20T14:36:58;3.95;;;0.80;;
70303;SDS011;57712;48.752;11.348;2022-11-20T14:39:29;4.80;;;1.40;;
70303;SDS011;57712;48.752;11.348;2022-11-20T14:41:58;5.03;;;1.33;;
70303;SDS011;57712;48.752;11.348;2022-11-20T14:44:27;3.90;;;0.93;;
70303;SDS011;57712;48.752;11.348;2022-11-20T14:46:56;5.60;;;1.30;;
70303;SDS011;57712;48.752;11.348;2022-11-20T14:49:24;4.20;;;1.05;;
70303;SDS011;57712;48.752;11.348;2022-11-20T14:51:59;5.60;;;0.87;;
70303;SDS011;57712;48.752;11.348;2022-11-20T14:54:43;3.78;;;1.17;;
70303;SDS011;57712;48.752;11.348;2022-11-20T15:02:41;9.68;;;4.10;;
70303;SDS011;57712;48.752;11.348;2022-11-20T15:05:08;4.60;;;1.57;;
70303;SDS011;57712;48.752;11.348;2022-11-20T15:07:36;4.35;;;1.30;;
70303;SDS011;57712;48.752;11.348;2022-11-20T15:12:49;5.57;;;1.33;;
70303;SDS011;57712;48.752;11.348;2022-11-20T15:15:19;4.18;;;1.30;;
70303;SDS011;57712;48.752;11.348;2022-11-20T15:17:51;4.63;;;1.60;;
70303;SDS011;57712;48.752;11.348;2022-11-20T15:20:17;3.92;;;1.13;;
70303;SDS011;57712;48.752;11.348;2022-11-20T15:22:44;3.75;;;0.90;;
70303;SDS011;57712;48.752;11.348;2022-11-20T15:25:14;4.47;;;0.95;;
70303;SDS011;57712;48.752;11.348;2022-11-20T15:27:42;6.25;;;1.15;;
70303;SDS011;57712;48.752;11.348;2022-11-20T15:30:14;4.27;;;1.00;;
70303;SDS011;57712;48.752;11.348;2022-11-20T15:32:43;3.90;;;1.30;;
70303;SDS011;57712;48.752;11.348;2022-11-20T15:35:10;3.78;;;1.38;;
70303;SDS011;57712;48.752;11.348;2022-11-20T15:37:37;5.15;;;1.20;;
70303;SDS011;57712;48.752;11.348;2022-11-20T15:40:04;4.10;;;0.93;;
70303;SDS011;57712;48.752;11.348;2022-11-20T15:42:32;3.80;;;1.00;;
70303;SDS011;57712;48.752;11.348;2022-11-20T15:44:59;4.28;;;0.85;;
70303;SDS011;57712;48.752;11.348;2022-11-20T15:47:32;4.13;;;1.20;;
70303;SDS011;57712;48.752;11.348;2022-11-20T15:50:01;4.88;;;1.15;;
70303;SDS011;57712;48.752;11.348;2022-11-20T15:52:27;4.55;;;1.20;;
70303;SDS011;57712;48.752;11.348;2022-11-20T15:55:09;5.07;;;0.90;;
70303;SDS011;57712;48.752;11.348;2022-11-20T15:57:36;4.65;;;0.80;;
70303;SDS011;57712;48.752;11.348;2022-11-20T16:00:02;4.32;;;1.08;;
70303;SDS011;57712;48.752;11.348;2022-11-20T16:02:29;4.90;;;1.35;;
70303;SDS011;57712;48.752;11.348;2022-11-20T16:04:55;4.95;;;1.33;;
70303;SDS011;57712;48.752;11.348;2022-11-20T16:07:22;4.20;;;1.23;;
70303;SDS011;57712;48.752;11.348;2022-11-20T16:09:48;5.38;;;1.80;;
70303;SDS011;57712;48.752;11.348;2022-11-20T16:12:14;5.03;;;1.80;;
70303;SDS011;57712;48.752;11.348;2022-11-20T16:15:01;7.75;;;1.85;;
70303;SDS011;57712;48.752;11.348;2022-11-20T16:17:46;6.63;;;1.95;;
70303;SDS011;57712;48.752;11.348;2022-11-20T16:20:12;5.93;;;1.83;;
70303;SDS011;57712;48.752;11.348;2022-11-20T16:22:38;4.65;;;1.88;;
70303;SDS011;57712;48.752;11.348;2022-11-20T16:25:05;4.10;;;1.20;;
70303;SDS011;57712;48.752;11.348;2022-11-20T16:27:31;4.60;;;1.10;;
70303;SDS011;57712;48.752;11.348;2022-11-20T16:29:58;6.35;;;1.10;;
70303;SDS011;57712;48.752;11.348;2022-11-20T16:32:24;4.67;;;1.17;;
70303;SDS011;57712;48.752;11.348;2022-11-20T16:34:50;4.53;;;1.08;;
70303;SDS011;57712;48.752;11.348;2022-11-20T16:37:16;5.05;;;1.60;;